Muskegon, MI (49440)

8:32 PM EDT on August 30, 2015 (GMT -0400)
North Muskegon | | Change Station
CLOSE
Current Station
Personal Weather Station
Location: North Muskegon, MI
Elevation: 630 ft
Nearby Weather Stations

Elev 630 ft 43.25 °N, 86.27 °W | Updated 23 seconds ago

Partly Cloudy
Partly Cloudy
67.2 °F
Feels Like 67.2 °F
N
0.0
Wind Variable Wind from West
Gusts 2.0 mph

Today
High -- | Low -- °F
--% Chance of Precip.
Yesterday
High -- | Low -- °F
Precip. -- in
7:06 AM 8:23 PM
Full, 98% visible
Pressure 30.02 in
Visibility 5.0 miles
Clouds Scattered Clouds 24000 ft
Dew Point 65 °F
Humidity 92%
Rainfall 0.00 in
Snow Depth Not available.
UV 0 out of 12
Pollen 9.80 out of 12
Air Quality Not available.
Flu Activity Not available.
METAR KMKG 302355Z 28005KT 5SM HZ SCT240 21/17 A3002 RMK AO2 SLP164 T02060172 10250 20206 58004
Pressure 30.02 in
Visibility 5.0 miles
Clouds Scattered Clouds 24000 ft
Dew Point 65 °F
Humidity 92%
Rainfall 0.00 in
Snow Depth Not available.
UV 0 out of 12
Pollen 9.80 out of 12
Air Quality Not available.
Flu Activity Not available.
METAR KMKG 302355Z 28005KT 5SM HZ SCT240 21/17 A3002 RMK AO2 SLP164 T02060172 10250 20206 58004

10-Day Weather Forecast

×

Almanac

Astronomy

Aug. 30, 2015 Rise Set
Actual Time
Civil Twilight
Nautical Twilight
Astronomical Twilight
Moon
Length of Visible Light
Length of Day
Tomorrow will be .
, % of the Moon is Illuminated

Today's Extremes

State Highs State Lows

Community

WunderPhotos

Upload Photos

1,851,111 photos uploaded!

WunderBlogs® & News

Nearby

Air Quality

  Air Quality AQ Index Pollutant
Not available.

Snow Depth

Station Depth Elevation

Earthquake Activity

City Distance Mag. Time & Date
Minimum magnitude displayed is 2.5.

Coastal Water Temperatures

Place Temperature

Stations

Nearby Weather Stations

Station Location Temp. Windchill Dew Point Humidity Wind Precip. Elev Updated Type